AirNav   Airventure
 
 319 users online  

AL43 Henley Ranch Airport
Geiger, Alabama, USA


FAA INFORMATION EFFECTIVE 20 JULY 2017

Location

FAA Identifier: AL43
Lat/Long: 32-54-30.4650N / 088-20-00.1200W
32-54.507750N / 088-20.002000W
32.9084625 / -88.3333667
(estimated)
Elevation: 200 ft. / 61 m (estimated)
Variation: 01E (1985)
From city: 4 miles NW of GEIGER, AL
Time zone: UTC -5 (UTC -6 during Standard Time)
Zip code: 35459

Airport Operations

Airport use: Private use. Permission required prior to landing
Activation date: 06/1983
Control tower: no
ARTCC: MEMPHIS CENTER
FSS: ANNISTON FLIGHT SERVICE STATION
Attendance: UNATNDD
Wind indicator: yes
Segmented circle: yes

Nearby radio navigation aids

VOR radial/distance  VOR name  Freq  Var
EWAr007/33.1KEWANEE VORTAC113.8004E
IGBr161/35.8BIGBEE VORTAC116.2004E
MEIr032/39.7MERIDIAN VORTAC117.0005E

Airport Services

Runway Information

Runway 10/28

Dimensions: 3000 x 50 ft. / 914 x 15 m
Surface: turf
RUNWAY 10  RUNWAY 28
Traffic pattern: leftleft

Airport Ownership and Management from official FAA records

Ownership: Privately-owned
Owner: MARK HENLEY
576 HENLEY DR.
EMELLE, AL 35459
Phone 205-601-9215
Manager: ALAN HENLEY
576 HENLEY DR
EMELLE, AL 35459
Phone 205-455-2405

Airport Operational Statistics

Aircraft based on the field: 9
Single engine airplanes: 7
Multi engine airplanes: 1
Helicopters: 1
    

Additional Remarks

CARETAKER - LOUIS WATT 205-601-9215.

Instrument Procedures

There are no published instrument procedures at AL43.

Some nearby airports with instrument procedures:

KAIV - George Downer Airport (14 nm NE)
KNMM - Meridian Naval Air Station (Mc Cain Field) (24 nm SW)
KNJW - Joe Williams Naval Outlying Field (26 nm W)
KDYA - Demopolis Regional Airport (33 nm SE)
3M8 - North Pickens Airport (33 nm NE)
 
Loc | Ops | Rwys | IFR | FBO | Links
Com | Nav | Svcs | Stats | Notes


 
Area around AL43 (Henley Ranch Airport)
 
Road maps at: MapQuest Bing Google
 
Aerial photo
No photo
 
Sectional chart

 
Airport distance calculator
Flying to Henley Ranch Airport? Find the distance to fly.

From to AL43

Sunrise and sunset
Times for 28-Jul-2017
 Local
(UTC-5)
 Zulu
(UTC)
Morning civil twilight05:3810:38
Sunrise06:0511:05
Sunset19:5400:54
Evening civil twilight20:2201:22

Current date and time
Zulu (UTC)  28-Jul-2017 08:44:00
Local (UTC-5)  28-Jul-2017 03:44:00
 
METAR
KNMM 
25nm SW 
280756Z AUTO 26004KT 10SM CLR 26/21 A2993 RMK AO2 SLP141 T02560206 $
KDYA 
33nm SE 
280815Z AUTO 00000KT 7SM 24/24 A2992 RMK AO2 T02350235
KGTR 
35nm N 
280815Z 23005KT 10SM CLR 26/21 RMK AO1
KMEI 
40nm SW 
280758Z AUTO 00000KT 10SM CLR 24/23 A2994 RMK AO2 SLP134 T02440228
KTCL 
41nm NE 
280753Z AUTO 00000KT 8SM CLR 25/25 A2992 RMK AO2 SLP128 T02500250
KSTF 
41nm NW 
280815Z AUTO 00000KT 10SM CLR 25/22 A2992 RMK AO2
KCBM 
44nm N 
280758Z AUTO 22006KT 10SM SCT130 OVC170 26/25 A2989 RMK AO2 SLP122 T02620247 TSNO $
TAF
KNMM 
25nm SW 
2807/2907 24008KT 9999 FEW040 FEW160 BKN280 QNH2988INS BECMG 2814/2816 27008KT 9999 VCSH FEW045 SCT140 BKN250 QNH2984INS BECMG 2817/2819 29009KT 8000 -SHRA VCTS SCT025CB SCT055 BKN110 BKN250 QNH2981INS TEMPO 2820/2902 VRB15G25KT 1600 TSRA BKN025CB OVC055 AUTOMATED SENSOR METWATCH 2807 TIL 2811 T23/2811Z T31/2821Z FN00178
NOTAMs
Click for the latest NOTAMs
NOTAMs are issued by the DoD/FAA and will open in a separate window not controlled by AirNav.

 

 
 

Would you like to see your business listed on this page?

 If your business provides an interesting product or service to pilots, flight crews, aircraft, or users of the Henley Ranch Airport, you should consider listing it here.  To start the listing process, click on the button below
 
Add a business
 

Other Pages about Henley Ranch Airport

Update a link
 
Copyright © AirNav, LLC. All rights reserved. Privacy Policy  Contact